AIQ263Y VTCC-ZJSY
Flight info
| Callsign | AIQ263Y |
|---|---|
| Flight time | 1h 43m |
| Altitude | 35000 |
| Route | MONLO2N MONLO R207 VTN R335 IDOTA/K0869F350 R335 VIN A206 ASSAD/K0869S1070 A202 DABUB DABUB2C |
| Aircraft | A320/M-SDE3FGHIRWY/LB1 |
Departure
| Time | 2026-04-29 16:19 |
|---|---|
| Airport | Chiang Mai International Airport (VTCC) |
Arrival
| Time | 2026-04-29 18:02 |
|---|---|
| Airport | Sanya Phoenix International Airport (ZJSY) |
| Time | Latitude | Longitude | Altitude | Speed | Heading |
|---|---|---|---|---|---|
| 2026-04-29 15:59 | 18.77026 | 98.96707 | 1031 ft | 0 kts | 90° |
| 2026-04-29 16:12 | 18.77027 | 98.96673 | 1031 ft | 4 kts | 96° |
| 2026-04-29 16:12 | 18.77031 | 98.96645 | 1031 ft | 4 kts | 109° |
| 2026-04-29 16:13 | 18.77044 | 98.96622 | 1031 ft | 3 kts | 150° |
| 2026-04-29 16:13 | 18.77052 | 98.96618 | 1031 ft | 0 kts | 155° |
| 2026-04-29 16:15 | 18.77036 | 98.96625 | 1031 ft | 6 kts | 158° |
| 2026-04-29 16:15 | 18.76957 | 98.96646 | 1031 ft | 16 kts | 174° |
| 2026-04-29 16:15 | 18.76830 | 98.96644 | 1031 ft | 20 kts | 182° |
| 2026-04-29 16:15 | 18.76685 | 98.96644 | 1031 ft | 21 kts | 178° |
| 2026-04-29 16:16 | 18.76575 | 98.96594 | 1031 ft | 18 kts | 253° |
| 2026-04-29 16:16 | 18.76485 | 98.96518 | 1031 ft | 19 kts | 184° |
| 2026-04-29 16:16 | 18.76342 | 98.96517 | 1031 ft | 23 kts | 180° |
| 2026-04-29 16:16 | 18.76170 | 98.96514 | 1031 ft | 26 kts | 181° |
| 2026-04-29 16:17 | 18.75988 | 98.96511 | 1031 ft | 27 kts | 179° |
| 2026-04-29 16:17 | 18.75802 | 98.96514 | 1031 ft | 27 kts | 180° |
| 2026-04-29 16:17 | 18.75610 | 98.96514 | 1031 ft | 28 kts | 180° |
| 2026-04-29 16:17 | 18.75428 | 98.96459 | 1031 ft | 28 kts | 209° |
| 2026-04-29 16:18 | 18.75321 | 98.96366 | 1031 ft | 17 kts | 253° |
| 2026-04-29 16:18 | 18.75377 | 98.96288 | 1031 ft | 15 kts | 356° |
| 2026-04-29 16:18 | 18.75623 | 98.96284 | 1031 ft | 69 kts | 360° |
| 2026-04-29 16:18 | 18.76326 | 98.96283 | 1031 ft | 131 kts | 0° |
| 2026-04-29 16:19 | 18.77402 | 98.96285 | 1091 ft | 172 kts | 0° |
| 2026-04-29 16:19 | 18.78605 | 98.96334 | 1674 ft | 171 kts | 4° |
| 2026-04-29 16:19 | 18.79785 | 98.96426 | 2413 ft | 168 kts | 6° |
| 2026-04-29 16:19 | 18.80939 | 98.96505 | 3058 ft | 169 kts | 4° |
| 2026-04-29 16:20 | 18.82183 | 98.96516 | 3406 ft | 188 kts | 357° |
| 2026-04-29 16:20 | 18.83553 | 98.96472 | 3759 ft | 207 kts | 3° |
| 2026-04-29 16:20 | 18.84987 | 98.96946 | 4010 ft | 234 kts | 32° |
| 2026-04-29 16:20 | 18.86135 | 98.98259 | 4329 ft | 258 kts | 63° |
| 2026-04-29 16:21 | 18.86574 | 99.00166 | 4679 ft | 279 kts | 88° |
| 2026-04-29 16:21 | 18.86367 | 99.02214 | 5319 ft | 283 kts | 111° |
| 2026-04-29 16:21 | 18.85332 | 99.03971 | 6014 ft | 284 kts | 134° |
| 2026-04-29 16:21 | 18.83946 | 99.05473 | 6712 ft | 287 kts | 137° |
| 2026-04-29 16:22 | 18.82523 | 99.06953 | 7375 ft | 289 kts | 137° |
| 2026-04-29 16:22 | 18.81112 | 99.08435 | 8040 ft | 292 kts | 136° |
| 2026-04-29 16:22 | 18.79681 | 99.09968 | 8706 ft | 294 kts | 136° |
| 2026-04-29 16:22 | 18.78248 | 99.11523 | 9338 ft | 297 kts | 136° |
| 2026-04-29 16:23 | 18.76803 | 99.13101 | 9940 ft | 300 kts | 136° |
| 2026-04-29 16:23 | 18.75335 | 99.14708 | 10336 ft | 311 kts | 136° |
| 2026-04-29 16:23 | 18.73817 | 99.16372 | 10764 ft | 316 kts | 136° |
| 2026-04-29 16:23 | 18.72307 | 99.18028 | 11300 ft | 319 kts | 136° |
| 2026-04-29 16:24 | 18.70763 | 99.19720 | 11816 ft | 322 kts | 136° |
| 2026-04-29 16:24 | 18.69199 | 99.21433 | 12331 ft | 325 kts | 135° |
| 2026-04-29 16:24 | 18.67869 | 99.23367 | 12825 ft | 330 kts | 116° |
| 2026-04-29 16:24 | 18.67293 | 99.25722 | 13289 ft | 336 kts | 93° |
| 2026-04-29 16:25 | 18.67570 | 99.28174 | 13762 ft | 340 kts | 74° |
| 2026-04-29 16:25 | 18.68312 | 99.30555 | 14196 ft | 343 kts | 69° |
| 2026-04-29 16:25 | 18.69151 | 99.32928 | 14597 ft | 347 kts | 69° |
| 2026-04-29 16:25 | 18.69977 | 99.35331 | 15012 ft | 350 kts | 70° |
| 2026-04-29 16:26 | 18.70773 | 99.37775 | 15282 ft | 358 kts | 71° |
| 2026-04-29 16:26 | 18.71565 | 99.40306 | 15420 ft | 370 kts | 71° |
| 2026-04-29 16:26 | 18.72095 | 99.42034 | 15491 ft | 377 kts | 71° |
| 2026-04-29 16:26 | 18.72908 | 99.44704 | 15595 ft | 388 kts | 71° |
| 2026-04-29 16:27 | 18.73741 | 99.47451 | 15804 ft | 395 kts | 71° |
| 2026-04-29 16:27 | 18.74578 | 99.50218 | 16140 ft | 397 kts | 71° |
| 2026-04-29 16:27 | 18.75421 | 99.53008 | 16448 ft | 400 kts | 71° |
| 2026-04-29 16:27 | 18.76267 | 99.55814 | 16754 ft | 403 kts | 71° |
| 2026-04-29 16:28 | 18.77119 | 99.58634 | 17047 ft | 405 kts | 71° |
| 2026-04-29 16:28 | 18.77930 | 99.61491 | 17327 ft | 408 kts | 76° |
| 2026-04-29 16:28 | 18.78401 | 99.64451 | 17623 ft | 410 kts | 85° |
| 2026-04-29 16:28 | 18.78514 | 99.67466 | 17909 ft | 412 kts | 89° |
| 2026-04-29 16:29 | 18.78577 | 99.70494 | 18166 ft | 415 kts | 89° |
| 2026-04-29 16:29 | 18.78648 | 99.73550 | 18425 ft | 417 kts | 88° |
| 2026-04-29 16:29 | 18.78723 | 99.76610 | 18681 ft | 418 kts | 88° |
| 2026-04-29 16:29 | 18.78797 | 99.79643 | 18918 ft | 420 kts | 88° |
| 2026-04-29 16:30 | 18.78871 | 99.82736 | 19141 ft | 422 kts | 88° |
| 2026-04-29 16:30 | 18.78945 | 99.85841 | 19365 ft | 424 kts | 88° |
| 2026-04-29 16:30 | 18.79018 | 99.88952 | 19598 ft | 425 kts | 88° |
| 2026-04-29 16:30 | 18.79090 | 99.92083 | 19819 ft | 427 kts | 88° |
| 2026-04-29 16:31 | 18.79162 | 99.95221 | 20043 ft | 429 kts | 88° |
| 2026-04-29 16:31 | 18.79234 | 99.98377 | 20257 ft | 430 kts | 88° |
| 2026-04-29 16:31 | 18.79305 | 100.01536 | 20470 ft | 432 kts | 88° |
| 2026-04-29 16:31 | 18.79377 | 100.04707 | 20691 ft | 433 kts | 88° |
| 2026-04-29 16:32 | 18.79448 | 100.07897 | 20905 ft | 435 kts | 88° |
| 2026-04-29 16:32 | 18.79520 | 100.11096 | 21103 ft | 437 kts | 88° |
| 2026-04-29 16:32 | 18.79592 | 100.14301 | 21312 ft | 438 kts | 88° |
| 2026-04-29 16:32 | 18.79663 | 100.17521 | 21521 ft | 439 kts | 88° |
| 2026-04-29 16:33 | 18.79804 | 100.23997 | 21886 ft | 443 kts | 88° |
| 2026-04-29 16:33 | 18.79874 | 100.27209 | 22080 ft | 444 kts | 88° |
| 2026-04-29 16:33 | 18.79944 | 100.30469 | 22263 ft | 446 kts | 88° |
| 2026-04-29 16:34 | 18.80015 | 100.33753 | 22458 ft | 447 kts | 88° |
| 2026-04-29 16:34 | 18.80084 | 100.37040 | 22620 ft | 449 kts | 88° |
| 2026-04-29 16:34 | 18.80154 | 100.40337 | 22793 ft | 450 kts | 88° |
| 2026-04-29 16:34 | 18.80223 | 100.43651 | 22982 ft | 451 kts | 88° |
| 2026-04-29 16:35 | 18.80292 | 100.46960 | 23151 ft | 452 kts | 88° |
| 2026-04-29 16:35 | 18.80361 | 100.50286 | 23306 ft | 454 kts | 88° |
| 2026-04-29 16:35 | 18.80428 | 100.53615 | 23479 ft | 454 kts | 88° |
| 2026-04-29 16:35 | 18.80495 | 100.56958 | 23633 ft | 455 kts | 88° |
| 2026-04-29 16:36 | 18.80562 | 100.60303 | 23807 ft | 455 kts | 88° |
| 2026-04-29 16:36 | 18.80626 | 100.63647 | 23917 ft | 456 kts | 88° |
| 2026-04-29 16:36 | 18.80691 | 100.67006 | 24020 ft | 458 kts | 88° |
| 2026-04-29 16:36 | 18.80758 | 100.70373 | 24145 ft | 459 kts | 88° |
| 2026-04-29 16:37 | 18.80821 | 100.73697 | 24289 ft | 460 kts | 89° |
| 2026-04-29 16:37 | 18.80595 | 100.77061 | 24401 ft | 460 kts | 100° |
| 2026-04-29 16:37 | 18.79820 | 100.80326 | 24505 ft | 459 kts | 111° |
| 2026-04-29 16:37 | 18.78998 | 100.82429 | 24585 ft | 458 kts | 117° |
| 2026-04-29 16:38 | 18.77133 | 100.86428 | 24747 ft | 459 kts | 118° |
| 2026-04-29 16:38 | 18.75730 | 100.89455 | 24884 ft | 459 kts | 117° |
| 2026-04-29 16:38 | 18.74325 | 100.92493 | 24978 ft | 461 kts | 117° |
| 2026-04-29 16:38 | 18.72919 | 100.95535 | 25100 ft | 461 kts | 117° |
| 2026-04-29 16:39 | 18.71510 | 100.98580 | 25207 ft | 462 kts | 117° |
| 2026-04-29 16:39 | 18.70100 | 101.01624 | 25325 ft | 463 kts | 118° |
| 2026-04-29 16:39 | 18.68684 | 101.04680 | 25436 ft | 463 kts | 118° |
| 2026-04-29 16:39 | 18.67269 | 101.07732 | 25542 ft | 465 kts | 118° |
| 2026-04-29 16:40 | 18.65847 | 101.10795 | 25645 ft | 465 kts | 118° |
| 2026-04-29 16:40 | 18.64422 | 101.13864 | 25764 ft | 466 kts | 118° |
| 2026-04-29 16:40 | 18.63000 | 101.16927 | 25886 ft | 465 kts | 118° |
| 2026-04-29 16:40 | 18.61575 | 101.19992 | 25993 ft | 466 kts | 118° |
| 2026-04-29 16:41 | 18.60151 | 101.23071 | 26093 ft | 467 kts | 117° |
| 2026-04-29 16:41 | 18.58760 | 101.26169 | 26165 ft | 469 kts | 117° |
| 2026-04-29 16:41 | 18.57397 | 101.29246 | 26229 ft | 470 kts | 117° |
| 2026-04-29 16:41 | 18.56015 | 101.32369 | 26339 ft | 467 kts | 117° |
| 2026-04-29 16:42 | 18.54644 | 101.35450 | 26673 ft | 462 kts | 117° |
| 2026-04-29 16:42 | 18.53272 | 101.38517 | 26737 ft | 463 kts | 117° |
| 2026-04-29 16:42 | 18.51897 | 101.41585 | 26789 ft | 464 kts | 117° |
| 2026-04-29 16:42 | 18.50516 | 101.44664 | 26874 ft | 464 kts | 117° |
| 2026-04-29 16:43 | 18.49136 | 101.47742 | 26951 ft | 465 kts | 117° |
| 2026-04-29 16:43 | 18.47754 | 101.50823 | 27022 ft | 465 kts | 117° |
| 2026-04-29 16:43 | 18.46370 | 101.53906 | 27104 ft | 465 kts | 117° |
| 2026-04-29 16:43 | 18.44983 | 101.56995 | 27178 ft | 466 kts | 117° |
| 2026-04-29 16:44 | 18.43599 | 101.60075 | 27246 ft | 466 kts | 117° |
| 2026-04-29 16:44 | 18.42210 | 101.63164 | 27310 ft | 466 kts | 117° |
| 2026-04-29 16:44 | 18.40822 | 101.66251 | 27405 ft | 466 kts | 117° |
| 2026-04-29 16:44 | 18.39452 | 101.69297 | 27467 ft | 466 kts | 117° |
| 2026-04-29 16:45 | 18.38061 | 101.72387 | 27526 ft | 467 kts | 117° |
| 2026-04-29 16:45 | 18.36670 | 101.75474 | 27588 ft | 467 kts | 117° |
| 2026-04-29 16:45 | 18.35277 | 101.78566 | 27634 ft | 468 kts | 117° |
| 2026-04-29 16:45 | 18.33883 | 101.81657 | 27690 ft | 468 kts | 117° |
| 2026-04-29 16:46 | 18.32487 | 101.84752 | 27761 ft | 468 kts | 117° |
| 2026-04-29 16:46 | 18.31088 | 101.87851 | 27796 ft | 468 kts | 117° |
| 2026-04-29 16:46 | 18.29687 | 101.90954 | 27844 ft | 469 kts | 117° |
| 2026-04-29 16:46 | 18.28285 | 101.94055 | 27882 ft | 469 kts | 117° |
| 2026-04-29 16:47 | 18.26884 | 101.97154 | 27930 ft | 469 kts | 117° |
| 2026-04-29 16:47 | 18.25478 | 102.00263 | 27978 ft | 470 kts | 117° |
| 2026-04-29 16:47 | 18.22669 | 102.06468 | 28061 ft | 470 kts | 117° |
| 2026-04-29 16:48 | 18.19872 | 102.12642 | 28149 ft | 470 kts | 117° |
| 2026-04-29 16:48 | 18.17051 | 102.18860 | 28193 ft | 472 kts | 117° |
| 2026-04-29 16:49 | 18.14223 | 102.25088 | 28258 ft | 472 kts | 117° |
| 2026-04-29 16:49 | 18.11391 | 102.31318 | 28308 ft | 473 kts | 117° |
| 2026-04-29 16:50 | 18.08551 | 102.37559 | 28361 ft | 474 kts | 117° |
| 2026-04-29 16:50 | 18.05705 | 102.43807 | 28410 ft | 474 kts | 117° |
| 2026-04-29 16:51 | 18.03448 | 102.50317 | 28458 ft | 479 kts | 99° |
| 2026-04-29 16:51 | 18.03232 | 102.53805 | 28483 ft | 480 kts | 87° |
| 2026-04-29 16:51 | 18.03689 | 102.57276 | 28516 ft | 481 kts | 75° |
| 2026-04-29 16:52 | 18.04800 | 102.60583 | 28547 ft | 480 kts | 63° |
| 2026-04-29 16:52 | 18.06513 | 102.63576 | 28579 ft | 478 kts | 51° |
| 2026-04-29 16:52 | 18.10770 | 102.68928 | 28641 ft | 478 kts | 48° |
| 2026-04-29 16:53 | 18.14868 | 102.74446 | 28714 ft | 479 kts | 52° |
| 2026-04-29 16:53 | 18.18780 | 102.80136 | 28789 ft | 480 kts | 53° |
| 2026-04-29 16:54 | 18.22649 | 102.85858 | 28862 ft | 480 kts | 53° |
| 2026-04-29 16:54 | 18.26521 | 102.91585 | 28921 ft | 481 kts | 53° |
| 2026-04-29 16:55 | 18.30376 | 102.97286 | 28975 ft | 481 kts | 53° |
| 2026-04-29 16:55 | 18.34256 | 103.03028 | 29039 ft | 481 kts | 53° |
| 2026-04-29 16:56 | 18.38138 | 103.08779 | 29094 ft | 482 kts | 53° |
| 2026-04-29 16:56 | 18.42022 | 103.14535 | 29165 ft | 482 kts | 53° |
| 2026-04-29 16:57 | 18.45901 | 103.20291 | 29244 ft | 482 kts | 53° |
| 2026-04-29 16:57 | 18.49787 | 103.26062 | 29290 ft | 483 kts | 53° |
| 2026-04-29 16:58 | 18.53328 | 103.32077 | 29307 ft | 485 kts | 66° |
| 2026-04-29 16:58 | 18.54386 | 103.35443 | 29321 ft | 484 kts | 77° |
| 2026-04-29 16:58 | 18.54881 | 103.38942 | 29349 ft | 483 kts | 85° |
| 2026-04-29 16:59 | 18.55478 | 103.45966 | 29401 ft | 483 kts | 85° |
| 2026-04-29 16:59 | 18.56096 | 103.53063 | 29456 ft | 483 kts | 85° |
| 2026-04-29 17:00 | 18.56703 | 103.60072 | 29509 ft | 483 kts | 85° |
| 2026-04-29 17:00 | 18.57310 | 103.67132 | 29575 ft | 483 kts | 85° |
| 2026-04-29 17:01 | 18.57913 | 103.74180 | 29637 ft | 483 kts | 85° |
| 2026-04-29 17:01 | 18.58515 | 103.81233 | 29693 ft | 483 kts | 85° |
| 2026-04-29 17:02 | 18.59113 | 103.88282 | 29742 ft | 483 kts | 85° |
| 2026-04-29 17:02 | 18.59708 | 103.95337 | 29786 ft | 483 kts | 85° |
| 2026-04-29 17:03 | 18.60302 | 104.02388 | 29859 ft | 483 kts | 85° |
| 2026-04-29 17:03 | 18.60892 | 104.09444 | 29905 ft | 483 kts | 85° |
| 2026-04-29 17:04 | 18.61481 | 104.16501 | 29961 ft | 483 kts | 85° |
| 2026-04-29 17:04 | 18.62066 | 104.23555 | 30027 ft | 483 kts | 85° |
| 2026-04-29 17:05 | 18.62646 | 104.30578 | 30087 ft | 483 kts | 85° |
| 2026-04-29 17:05 | 18.63227 | 104.37647 | 30142 ft | 483 kts | 85° |
| 2026-04-29 17:06 | 18.63805 | 104.44712 | 30197 ft | 484 kts | 85° |
| 2026-04-29 17:06 | 18.64382 | 104.51783 | 30242 ft | 483 kts | 85° |
| 2026-04-29 17:07 | 18.64858 | 104.57650 | 30286 ft | 483 kts | 85° |
| 2026-04-29 17:07 | 18.65524 | 104.65908 | 30303 ft | 483 kts | 85° |
| 2026-04-29 17:08 | 18.66092 | 104.72976 | 30336 ft | 483 kts | 85° |
| 2026-04-29 17:08 | 18.66657 | 104.80031 | 30387 ft | 483 kts | 85° |
| 2026-04-29 17:09 | 18.67218 | 104.87093 | 30416 ft | 483 kts | 85° |
| 2026-04-29 17:09 | 18.67774 | 104.94099 | 30451 ft | 483 kts | 85° |
| 2026-04-29 17:10 | 18.68331 | 105.01162 | 30494 ft | 483 kts | 85° |
| 2026-04-29 17:10 | 18.68886 | 105.08236 | 30518 ft | 484 kts | 85° |
| 2026-04-29 17:11 | 18.69440 | 105.15312 | 30522 ft | 485 kts | 85° |
| 2026-04-29 17:11 | 18.69995 | 105.22403 | 30541 ft | 485 kts | 85° |
| 2026-04-29 17:12 | 18.70548 | 105.29502 | 30553 ft | 485 kts | 85° |
| 2026-04-29 17:12 | 18.70912 | 105.34205 | 30581 ft | 485 kts | 85° |
| 2026-04-29 17:13 | 18.71640 | 105.43639 | 30649 ft | 484 kts | 85° |
| 2026-04-29 17:13 | 18.72095 | 105.49573 | 30691 ft | 484 kts | 85° |
| 2026-04-29 17:14 | 18.72632 | 105.56607 | 30744 ft | 483 kts | 85° |
| 2026-04-29 17:14 | 18.73148 | 105.63679 | 30761 ft | 483 kts | 88° |
| 2026-04-29 17:15 | 18.72677 | 105.70729 | 30803 ft | 481 kts | 101° |
| 2026-04-29 17:15 | 18.71350 | 105.77629 | 30860 ft | 480 kts | 102° |
| 2026-04-29 17:16 | 18.70040 | 105.84535 | 30911 ft | 480 kts | 102° |
| 2026-04-29 17:16 | 18.68726 | 105.91439 | 30973 ft | 479 kts | 102° |
| 2026-04-29 17:17 | 18.67408 | 105.98338 | 31018 ft | 479 kts | 102° |
| 2026-04-29 17:17 | 18.66097 | 106.05180 | 31071 ft | 479 kts | 102° |
| 2026-04-29 17:18 | 18.64778 | 106.12054 | 31125 ft | 478 kts | 102° |
| 2026-04-29 17:18 | 18.63445 | 106.18924 | 31168 ft | 478 kts | 102° |
| 2026-04-29 17:19 | 18.62110 | 106.25786 | 31229 ft | 478 kts | 102° |
| 2026-04-29 17:19 | 18.60775 | 106.32644 | 31280 ft | 477 kts | 102° |
| 2026-04-29 17:20 | 18.59437 | 106.39498 | 31330 ft | 477 kts | 102° |
| 2026-04-29 17:20 | 18.58099 | 106.46346 | 31380 ft | 477 kts | 102° |
| 2026-04-29 17:21 | 18.56757 | 106.53198 | 31438 ft | 476 kts | 102° |
| 2026-04-29 17:21 | 18.55423 | 106.59992 | 31484 ft | 476 kts | 102° |
| 2026-04-29 17:22 | 18.54099 | 106.66829 | 31543 ft | 476 kts | 102° |
| 2026-04-29 17:22 | 18.52777 | 106.73665 | 31598 ft | 476 kts | 102° |
| 2026-04-29 17:23 | 18.51452 | 106.80492 | 31654 ft | 475 kts | 102° |
| 2026-04-29 17:23 | 18.50124 | 106.87312 | 31709 ft | 475 kts | 102° |
| 2026-04-29 17:24 | 18.48794 | 106.94130 | 31759 ft | 475 kts | 102° |
| 2026-04-29 17:24 | 18.47464 | 107.00936 | 31817 ft | 474 kts | 102° |
| 2026-04-29 17:25 | 18.46133 | 107.07734 | 31870 ft | 474 kts | 102° |
| 2026-04-29 17:25 | 18.44803 | 107.14495 | 31926 ft | 473 kts | 102° |
| 2026-04-29 17:26 | 18.43466 | 107.21284 | 31978 ft | 473 kts | 102° |
| 2026-04-29 17:26 | 18.42129 | 107.28061 | 32036 ft | 473 kts | 102° |
| 2026-04-29 17:27 | 18.40789 | 107.34840 | 32090 ft | 472 kts | 102° |
| 2026-04-29 17:27 | 18.39450 | 107.41600 | 32141 ft | 471 kts | 102° |
| 2026-04-29 17:28 | 18.38110 | 107.48355 | 32205 ft | 471 kts | 102° |
| 2026-04-29 17:28 | 18.36767 | 107.55107 | 32261 ft | 470 kts | 102° |
| 2026-04-29 17:29 | 18.35484 | 107.61851 | 32314 ft | 470 kts | 96° |
| 2026-04-29 17:29 | 18.35422 | 107.65291 | 32347 ft | 470 kts | 84° |
| 2026-04-29 17:29 | 18.35755 | 107.67535 | 32365 ft | 469 kts | 75° |
| 2026-04-29 17:30 | 18.37305 | 107.71800 | 32396 ft | 466 kts | 58° |
| 2026-04-29 17:30 | 18.39127 | 107.74544 | 32419 ft | 463 kts | 47° |
| 2026-04-29 17:30 | 18.43279 | 107.79748 | 32439 ft | 464 kts | 47° |
| 2026-04-29 17:31 | 18.47412 | 107.84969 | 32488 ft | 463 kts | 48° |
| 2026-04-29 17:31 | 18.51526 | 107.90198 | 32536 ft | 463 kts | 48° |
| 2026-04-29 17:32 | 18.55638 | 107.95432 | 32575 ft | 463 kts | 48° |
| 2026-04-29 17:32 | 18.59744 | 108.00664 | 32602 ft | 464 kts | 48° |
| 2026-04-29 17:33 | 18.63859 | 108.05910 | 32623 ft | 464 kts | 48° |
| 2026-04-29 17:33 | 18.67950 | 108.11131 | 32638 ft | 465 kts | 48° |
| 2026-04-29 17:34 | 18.72090 | 108.16415 | 32356 ft | 473 kts | 48° |
| 2026-04-29 17:34 | 18.74200 | 108.19108 | 32110 ft | 479 kts | 48° |
| 2026-04-29 17:34 | 18.76341 | 108.21842 | 31875 ft | 485 kts | 48° |
| 2026-04-29 17:35 | 18.79951 | 108.26454 | 31475 ft | 495 kts | 48° |
| 2026-04-29 17:35 | 18.82908 | 108.30233 | 31168 ft | 501 kts | 48° |
| 2026-04-29 17:35 | 18.85138 | 108.33086 | 30937 ft | 506 kts | 48° |
| 2026-04-29 17:36 | 18.87387 | 108.35963 | 30706 ft | 510 kts | 49° |
| 2026-04-29 17:36 | 18.89647 | 108.38857 | 30479 ft | 512 kts | 49° |
| 2026-04-29 17:36 | 18.91925 | 108.41775 | 30253 ft | 514 kts | 49° |
| 2026-04-29 17:36 | 18.94174 | 108.44659 | 30022 ft | 516 kts | 49° |
| 2026-04-29 17:37 | 18.96459 | 108.47590 | 29756 ft | 517 kts | 49° |
| 2026-04-29 17:37 | 18.98741 | 108.50520 | 29502 ft | 517 kts | 49° |
| 2026-04-29 17:37 | 19.01028 | 108.53459 | 29277 ft | 517 kts | 49° |
| 2026-04-29 17:38 | 19.05564 | 108.59297 | 29191 ft | 511 kts | 49° |
| 2026-04-29 17:38 | 19.10062 | 108.65093 | 29064 ft | 510 kts | 49° |
| 2026-04-29 17:38 | 19.12318 | 108.68001 | 28818 ft | 513 kts | 49° |
| 2026-04-29 17:39 | 19.14589 | 108.70928 | 28632 ft | 514 kts | 49° |
| 2026-04-29 17:39 | 19.19103 | 108.76753 | 28565 ft | 510 kts | 49° |
| 2026-04-29 17:40 | 19.23591 | 108.82551 | 28507 ft | 509 kts | 49° |
| 2026-04-29 17:40 | 19.28071 | 108.88341 | 28450 ft | 507 kts | 49° |
| 2026-04-29 17:41 | 19.32508 | 108.94081 | 28389 ft | 506 kts | 49° |
| 2026-04-29 17:41 | 19.36963 | 108.99848 | 28328 ft | 505 kts | 49° |
| 2026-04-29 17:41 | 19.39125 | 109.02800 | 28072 ft | 511 kts | 55° |
| 2026-04-29 17:42 | 19.40839 | 109.06129 | 27566 ft | 521 kts | 66° |
| 2026-04-29 17:42 | 19.41957 | 109.09800 | 27153 ft | 526 kts | 77° |
| 2026-04-29 17:42 | 19.42417 | 109.13646 | 26847 ft | 527 kts | 88° |
| 2026-04-29 17:42 | 19.42205 | 109.17515 | 26565 ft | 525 kts | 99° |
| 2026-04-29 17:43 | 19.41391 | 109.21218 | 26154 ft | 509 kts | 109° |
| 2026-04-29 17:43 | 19.40040 | 109.24632 | 25555 ft | 498 kts | 119° |
| 2026-04-29 17:43 | 19.38179 | 109.27693 | 24858 ft | 490 kts | 129° |
| 2026-04-29 17:43 | 19.35866 | 109.30296 | 24182 ft | 482 kts | 140° |
| 2026-04-29 17:44 | 19.33240 | 109.32328 | 23507 ft | 474 kts | 151° |
| 2026-04-29 17:44 | 19.30224 | 109.33830 | 22697 ft | 465 kts | 163° |
| 2026-04-29 17:44 | 19.27118 | 109.34640 | 21934 ft | 456 kts | 175° |
| 2026-04-29 17:44 | 19.23985 | 109.34776 | 21177 ft | 447 kts | 186° |
| 2026-04-29 17:45 | 19.20991 | 109.34255 | 20457 ft | 438 kts | 198° |
| 2026-04-29 17:45 | 19.18192 | 109.33097 | 19723 ft | 428 kts | 210° |
| 2026-04-29 17:45 | 19.15646 | 109.31512 | 19037 ft | 422 kts | 215° |
| 2026-04-29 17:45 | 19.13108 | 109.29981 | 18347 ft | 421 kts | 207° |
| 2026-04-29 17:46 | 19.10307 | 109.29060 | 17560 ft | 423 kts | 193° |
| 2026-04-29 17:46 | 19.07370 | 109.28845 | 16791 ft | 425 kts | 181° |
| 2026-04-29 17:46 | 19.04425 | 109.29106 | 16037 ft | 424 kts | 175° |
| 2026-04-29 17:46 | 19.01515 | 109.29603 | 15294 ft | 422 kts | 172° |
| 2026-04-29 17:47 | 18.98639 | 109.30190 | 14581 ft | 419 kts | 171° |
| 2026-04-29 17:47 | 18.95790 | 109.30793 | 13883 ft | 416 kts | 171° |
| 2026-04-29 17:47 | 18.92957 | 109.31388 | 13096 ft | 413 kts | 171° |
| 2026-04-29 17:47 | 18.90147 | 109.31969 | 12328 ft | 410 kts | 171° |
| 2026-04-29 17:48 | 18.87359 | 109.32538 | 11579 ft | 406 kts | 171° |
| 2026-04-29 17:48 | 18.84594 | 109.33099 | 10846 ft | 403 kts | 171° |
| 2026-04-29 17:48 | 18.81847 | 109.33655 | 10134 ft | 400 kts | 171° |
| 2026-04-29 17:48 | 18.79158 | 109.34199 | 9383 ft | 397 kts | 171° |
| 2026-04-29 17:49 | 18.76421 | 109.34754 | 8609 ft | 394 kts | 171° |
| 2026-04-29 17:49 | 18.73803 | 109.35286 | 8210 ft | 382 kts | 171° |
| 2026-04-29 17:49 | 18.71259 | 109.35802 | 8066 ft | 363 kts | 171° |
| 2026-04-29 17:49 | 18.68842 | 109.36289 | 8044 ft | 342 kts | 171° |
| 2026-04-29 17:50 | 18.66604 | 109.36739 | 8042 ft | 322 kts | 171° |
| 2026-04-29 17:50 | 18.64462 | 109.37170 | 8038 ft | 304 kts | 171° |
| 2026-04-29 17:50 | 18.62439 | 109.37580 | 8034 ft | 288 kts | 171° |
| 2026-04-29 17:50 | 18.60528 | 109.37966 | 8020 ft | 272 kts | 171° |
| 2026-04-29 17:51 | 18.58723 | 109.38330 | 8025 ft | 256 kts | 171° |
| 2026-04-29 17:51 | 18.57029 | 109.38673 | 8017 ft | 240 kts | 171° |
| 2026-04-29 17:51 | 18.55443 | 109.38991 | 8016 ft | 224 kts | 172° |
| 2026-04-29 17:51 | 18.53933 | 109.39284 | 7991 ft | 220 kts | 173° |
| 2026-04-29 17:52 | 18.52401 | 109.39568 | 7924 ft | 219 kts | 173° |
| 2026-04-29 17:52 | 18.51497 | 109.39734 | 8476 ft | 178 kts | 173° |
| 2026-04-29 17:52 | 18.49905 | 109.40006 | 8105 ft | 204 kts | 177° |
| 2026-04-29 17:52 | 18.48326 | 109.39887 | 8255 ft | 243 kts | 196° |
| 2026-04-29 17:53 | 18.46711 | 109.39038 | 8319 ft | 277 kts | 223° |
| 2026-04-29 17:53 | 18.45531 | 109.37438 | 8293 ft | 278 kts | 241° |
| 2026-04-29 17:53 | 18.44612 | 109.35675 | 8196 ft | 271 kts | 242° |
| 2026-04-29 17:53 | 18.43660 | 109.33969 | 7825 ft | 271 kts | 238° |
| 2026-04-29 17:54 | 18.42604 | 109.32335 | 7343 ft | 268 kts | 234° |
| 2026-04-29 17:54 | 18.41479 | 109.30783 | 6876 ft | 266 kts | 232° |
| 2026-04-29 17:54 | 18.40318 | 109.29258 | 6423 ft | 269 kts | 231° |
| 2026-04-29 17:54 | 18.39172 | 109.27681 | 5926 ft | 272 kts | 240° |
| 2026-04-29 17:55 | 18.38461 | 109.25886 | 5449 ft | 259 kts | 257° |
| 2026-04-29 17:55 | 18.38197 | 109.24060 | 4964 ft | 247 kts | 263° |
| 2026-04-29 17:55 | 18.37983 | 109.22301 | 4472 ft | 238 kts | 264° |
| 2026-04-29 17:55 | 18.37777 | 109.20588 | 3989 ft | 234 kts | 263° |
| 2026-04-29 17:56 | 18.37315 | 109.18963 | 3485 ft | 232 kts | 238° |
| 2026-04-29 17:56 | 18.36170 | 109.17830 | 3128 ft | 223 kts | 205° |
| 2026-04-29 17:56 | 18.34721 | 109.17541 | 3011 ft | 209 kts | 173° |
| 2026-04-29 17:56 | 18.33361 | 109.17992 | 3028 ft | 198 kts | 154° |
| 2026-04-29 17:57 | 18.32129 | 109.18585 | 3006 ft | 195 kts | 154° |
| 2026-04-29 17:57 | 18.30882 | 109.19174 | 3007 ft | 197 kts | 155° |
| 2026-04-29 17:57 | 18.29628 | 109.19753 | 2999 ft | 193 kts | 155° |
| 2026-04-29 17:57 | 18.28889 | 109.20218 | 2993 ft | 183 kts | 137° |
| 2026-04-29 17:58 | 18.28074 | 109.21702 | 2999 ft | 175 kts | 100° |
| 2026-04-29 17:58 | 18.27990 | 109.22957 | 2998 ft | 171 kts | 85° |
| 2026-04-29 17:58 | 18.28099 | 109.24225 | 2868 ft | 178 kts | 81° |
| 2026-04-29 17:58 | 18.28259 | 109.25529 | 2653 ft | 176 kts | 81° |
| 2026-04-29 17:59 | 18.28365 | 109.26357 | 2493 ft | 169 kts | 80° |
| 2026-04-29 17:59 | 18.28518 | 109.27548 | 2286 ft | 158 kts | 80° |
| 2026-04-29 17:59 | 18.28659 | 109.28654 | 2081 ft | 147 kts | 81° |
| 2026-04-29 17:59 | 18.28820 | 109.30054 | 1757 ft | 144 kts | 82° |
| 2026-04-29 18:00 | 18.28901 | 109.30747 | 1640 ft | 140 kts | 81° |
| 2026-04-29 18:00 | 18.29069 | 109.32070 | 1384 ft | 135 kts | 82° |
| 2026-04-29 18:00 | 18.29185 | 109.33070 | 1193 ft | 140 kts | 80° |
| 2026-04-29 18:00 | 18.29288 | 109.33755 | 1078 ft | 140 kts | 80° |
| 2026-04-29 18:01 | 18.29442 | 109.34753 | 940 ft | 137 kts | 81° |
| 2026-04-29 18:01 | 18.29573 | 109.35738 | 748 ft | 139 kts | 83° |
| 2026-04-29 18:01 | 18.29691 | 109.36727 | 626 ft | 134 kts | 83° |
| 2026-04-29 18:01 | 18.29814 | 109.37688 | 468 ft | 133 kts | 82° |
| 2026-04-29 18:02 | 18.29948 | 109.38644 | 325 ft | 132 kts | 82° |
| 2026-04-29 18:02 | 18.30075 | 109.39608 | 139 ft | 134 kts | 82° |
| 2026-04-29 18:02 | 18.30199 | 109.40528 | 77 ft | 108 kts | 82° |
| 2026-04-29 18:02 | 18.30275 | 109.41096 | 86 ft | 49 kts | 82° |
| 2026-04-29 18:03 | 18.30300 | 109.41275 | 87 ft | 15 kts | 65° |
| 2026-04-29 18:03 | 18.30374 | 109.41314 | 91 ft | 14 kts | 356° |
| 2026-04-29 18:03 | 18.30482 | 109.41301 | 88 ft | 17 kts | 351° |
| 2026-04-29 18:03 | 18.30593 | 109.41254 | 88 ft | 18 kts | 288° |
| 2026-04-29 18:04 | 18.30583 | 109.41114 | 86 ft | 21 kts | 261° |
| 2026-04-29 18:04 | 18.30595 | 109.40963 | 85 ft | 15 kts | 283° |
| 2026-04-29 18:04 | 18.30594 | 109.40881 | 82 ft | 5 kts | 262° |
| 2026-04-29 18:04 | 18.30593 | 109.40877 | 85 ft | 0 kts | 259° |